createdAt,value
2023-01-17T00:02:32.241Z,95595.84
2023-01-17T00:05:53.582Z,95596.47
2023-01-17T00:09:14.979Z,95609.47
2023-01-17T00:12:17.715Z,95604.91
2023-01-17T00:15:21.178Z,95610.75
2023-01-17T00:18:23.721Z,95610.44
2023-01-17T00:21:44.870Z,95615.44
2023-01-17T00:25:06.028Z,95615.44
2023-01-17T00:28:08.452Z,95626.63
2023-01-17T00:31:12.050Z,95626.28
2023-01-17T00:34:14.522Z,95621.91
2023-01-17T00:37:16.986Z,95620.78
2023-01-17T00:40:19.458Z,95615.59
2023-01-17T00:43:42.174Z,95609.28
2023-01-17T00:47:03.331Z,95605.72
2023-01-17T00:50:24.815Z,95602.97
2023-01-17T00:53:46.199Z,95602.97
2023-01-17T00:57:07.311Z,95603.16
2023-01-17T01:00:29.099Z,95608.16
2023-01-17T01:03:50.350Z,95603.28
2023-01-17T01:07:11.615Z,95605.56
2023-01-17T01:10:32.959Z,95611.72
2023-01-17T01:13:54.329Z,95607.84
2023-01-17T01:17:15.799Z,95603.63
2023-01-17T01:20:37.078Z,95603.28
2023-01-17T01:23:58.343Z,95602.66
2023-01-17T01:27:19.679Z,95611.72
2023-01-17T01:30:40.737Z,95623.41
2023-01-17T01:33:43.202Z,95621.28
2023-01-17T01:36:45.702Z,95622.56
2023-01-17T01:39:48.207Z,95617.84
2023-01-17T01:42:57.292Z,95610.59
2023-01-17T01:45:59.803Z,95606.03
2023-01-17T01:49:28.498Z,95602.81
2023-01-17T01:52:31.888Z,95597.28
2023-01-17T01:55:36.768Z,95592.94
2023-01-17T01:58:41.040Z,95590.00
2023-01-17T02:01:43.653Z,95582.09
2023-01-17T02:04:46.343Z,95586.91
2023-01-17T02:07:56.967Z,95590.97
2023-01-17T02:10:59.548Z,95596.63
2023-01-17T02:14:02.120Z,95602.97
2023-01-17T02:17:28.068Z,95603.75
2023-01-17T02:20:33.339Z,95608.13
2023-01-17T02:24:09.804Z,95603.56
2023-01-17T02:27:36.364Z,95599.66
2023-01-17T02:30:45.362Z,95602.25
2023-01-17T02:33:53.756Z,95608.13
2023-01-17T02:37:23.828Z,95597.06
2023-01-17T02:40:38.763Z,95596.94
2023-01-17T02:43:41.645Z,95593.56
2023-01-17T02:46:52.327Z,95579.63
2023-01-17T02:49:58.297Z,95584.81
2023-01-17T02:53:23.721Z,95576.84
2023-01-17T02:56:41.458Z,95573.81
2023-01-17T03:00:07.090Z,95568.78
2023-01-17T03:03:30.627Z,95568.31
2023-01-17T03:06:51.411Z,95560.84
2023-01-17T03:09:59.597Z,95563.44
2023-01-17T03:13:02.893Z,95560.19
2023-01-17T03:16:08.733Z,95558.41
2023-01-17T03:19:11.420Z,95561.34
2023-01-17T03:22:14.007Z,95567.91
2023-01-17T03:25:16.970Z,95572.78
2023-01-17T03:28:19.559Z,95579.09
2023-01-17T03:31:22.025Z,95578.44
2023-01-17T03:34:24.508Z,95577.59
2023-01-17T03:37:26.964Z,95586.84
2023-01-17T03:40:29.448Z,95595.75
2023-01-17T03:43:31.920Z,95596.38
2023-01-17T03:46:34.421Z,95581.59
2023-01-17T03:49:36.921Z,95582.44
2023-01-17T03:52:39.762Z,95576.28
2023-01-17T03:55:42.288Z,95570.09
2023-01-17T03:58:44.771Z,95572.19
2023-01-17T04:01:47.490Z,95574.31
2023-01-17T04:04:50.728Z,95566.88
2023-01-17T04:07:53.234Z,95563.38
2023-01-17T04:10:55.774Z,95553.00
2023-01-17T04:13:58.268Z,95559.16
2023-01-17T04:17:01.533Z,95555.09
2023-01-17T04:20:04.494Z,95558.16
2023-01-17T04:23:07.262Z,95551.72
2023-01-17T04:26:10.970Z,95562.06
2023-01-17T04:29:13.449Z,95553.84
2023-01-17T04:32:16.150Z,95547.84
2023-01-17T04:35:18.686Z,95548.03
2023-01-17T04:38:22.021Z,95554.19
2023-01-17T04:41:24.584Z,95550.47
2023-01-17T04:44:27.086Z,95560.34
2023-01-17T04:47:29.611Z,95563.13
2023-01-17T04:50:32.982Z,95564.06
2023-01-17T04:53:35.490Z,95581.72
2023-01-17T04:56:37.985Z,95569.59
2023-01-17T04:59:40.515Z,95568.91
2023-01-17T05:02:43.101Z,95571.97
2023-01-17T05:05:45.638Z,95580.84
2023-01-17T05:08:48.110Z,95591.88
2023-01-17T05:11:50.825Z,95587.06
2023-01-17T05:14:53.289Z,95588.00
2023-01-17T05:17:56.121Z,95587.41
2023-01-17T05:21:05.332Z,95586.09
2023-01-17T05:24:07.866Z,95590.31
2023-01-17T05:27:14.093Z,95598.72
2023-01-17T05:30:17.790Z,95605.19
2023-01-17T05:33:20.357Z,95602.91
2023-01-17T05:36:22.879Z,95603.91
2023-01-17T05:39:26.722Z,95595.94
2023-01-17T05:42:29.206Z,95593.81
2023-01-17T05:45:32.905Z,95597.03
2023-01-17T05:48:35.412Z,95595.41
2023-01-17T05:51:40.255Z,95593.13
2023-01-17T05:54:42.967Z,95592.16
2023-01-17T05:57:46.231Z,95598.44
2023-01-17T06:00:49.684Z,95602.84
2023-01-17T06:03:52.298Z,95603.81
2023-01-17T06:06:54.793Z,95604.16
2023-01-17T06:09:57.361Z,95599.94
2023-01-17T06:13:08.522Z,95600.44
2023-01-17T06:16:11.161Z,95600.25
2023-01-17T06:19:13.729Z,95611.13
2023-01-17T06:22:16.269Z,95604.81
2023-01-17T06:25:18.835Z,95601.31
2023-01-17T06:28:22.857Z,95604.41
2023-01-17T06:31:25.509Z,95600.06
2023-01-17T06:34:28.154Z,95609.44
2023-01-17T06:37:30.724Z,95619.34
2023-01-17T06:40:33.587Z,95613.50
2023-01-17T06:43:36.261Z,95612.38
2023-01-17T06:46:39.204Z,95616.72
2023-01-17T06:49:41.793Z,95615.63
2023-01-17T06:52:44.404Z,95609.47
2023-01-17T06:55:47.091Z,95612.34
2023-01-17T06:58:50.940Z,95624.19
2023-01-17T07:01:53.575Z,95630.19
2023-01-17T07:04:56.112Z,95633.75
2023-01-17T07:07:58.708Z,95615.28
2023-01-17T07:11:03.920Z,95611.22
2023-01-17T07:14:06.447Z,95617.22
2023-01-17T07:17:08.949Z,95618.84
2023-01-17T07:20:11.705Z,95632.13
2023-01-17T07:23:15.155Z,95642.97
2023-01-17T07:26:18.654Z,95648.50
2023-01-17T07:29:21.191Z,95657.09
2023-01-17T07:32:23.745Z,95658.72
2023-01-17T07:35:29.209Z,95655.78
2023-01-17T07:38:31.911Z,95653.19
2023-01-17T07:41:41.441Z,95650.94
2023-01-17T07:44:45.449Z,95654.16
2023-01-17T07:47:50.237Z,95658.03
2023-01-17T07:50:57.303Z,95667.94
2023-01-17T07:53:59.772Z,95666.97
2023-01-17T07:57:02.398Z,95679.13
2023-01-17T08:00:05.586Z,95670.53
2023-01-17T08:03:16.574Z,95688.03
2023-01-17T08:06:24.119Z,95685.28
2023-01-17T08:09:26.628Z,95689.47
2023-01-17T08:12:29.719Z,95705.38
2023-01-17T08:15:32.472Z,95702.28
2023-01-17T08:18:35.018Z,95708.28
2023-01-17T08:21:37.722Z,95714.63
2023-01-17T08:24:40.290Z,95707.28
2023-01-17T08:27:42.742Z,95718.94
2023-01-17T08:30:45.378Z,95716.69
2023-01-17T08:33:47.905Z,95718.00
2023-01-17T08:36:53.067Z,95719.31
2023-01-17T08:39:55.592Z,95720.63
2023-01-17T08:42:59.350Z,95719.94
2023-01-17T08:46:01.882Z,95713.09
2023-01-17T08:49:04.480Z,95718.91
2023-01-17T08:52:06.955Z,95721.88
2023-01-17T08:55:11.237Z,95730.94
2023-01-17T08:58:14.195Z,95734.47
2023-01-17T09:01:16.803Z,95745.09
2023-01-17T09:04:19.617Z,95749.09
2023-01-17T09:07:22.307Z,95745.78
2023-01-17T09:10:25.161Z,95746.25
2023-01-17T09:13:27.825Z,95767.25
2023-01-17T09:16:31.249Z,95770.22
2023-01-17T09:19:33.931Z,95779.72
2023-01-17T09:22:38.073Z,95783.94
2023-01-17T09:25:44.710Z,95794.47
2023-01-17T09:28:47.983Z,95779.75
2023-01-17T09:31:50.467Z,95780.47
2023-01-17T09:34:53.078Z,95776.91
2023-01-17T09:37:57.245Z,95777.09
2023-01-17T09:41:01.927Z,95768.16
2023-01-17T09:44:19.573Z,95777.63
2023-01-17T09:47:30.864Z,95792.09
2023-01-17T09:50:48.129Z,95798.56
2023-01-17T09:53:51.478Z,95790.59
2023-01-17T09:57:03.184Z,95799.88
2023-01-17T10:00:27.544Z,95800.94
2023-01-17T10:04:01.174Z,95797.66
2023-01-17T10:07:45.850Z,95805.09
2023-01-17T10:11:10.383Z,95798.56
2023-01-17T10:14:30.948Z,95797.53
2023-01-17T10:17:36.487Z,95805.09
2023-01-17T10:20:57.542Z,95806.03
2023-01-17T10:24:23.245Z,95821.81
2023-01-17T10:27:31.550Z,95823.16
2023-01-17T10:30:37.212Z,95833.34
2023-01-17T10:33:44.374Z,95828.22
2023-01-17T10:36:50.638Z,95821.16
2023-01-17T10:39:56.736Z,95825.38
2023-01-17T10:43:22.545Z,95818.56
2023-01-17T10:46:34.791Z,95821.78
2023-01-17T10:49:40.032Z,95817.97
2023-01-17T10:52:55.836Z,95808.75
2023-01-17T10:55:58.560Z,95812.59
2023-01-17T10:59:30.759Z,95808.69
2023-01-17T11:02:40.035Z,95814.50
2023-01-17T11:05:43.525Z,95804.09
2023-01-17T11:08:54.908Z,95788.63
2023-01-17T11:11:57.438Z,95786.44
2023-01-17T11:15:06.975Z,95774.94
2023-01-17T11:18:16.624Z,95765.69
2023-01-17T11:21:23.458Z,95769.00
2023-01-17T11:24:35.460Z,95768.16
2023-01-17T11:27:41.155Z,95758.97
2023-01-17T11:30:54.757Z,95747.53
2023-01-17T11:34:19.261Z,95725.91
2023-01-17T11:37:24.217Z,95715.78
2023-01-17T11:40:35.786Z,95715.25
2023-01-17T11:43:53.447Z,95710.69
2023-01-17T11:47:09.009Z,95712.50
2023-01-17T11:50:25.755Z,95725.94
2023-01-17T11:53:33.138Z,95729.44
2023-01-17T11:56:36.806Z,95724.25
2023-01-17T11:59:43.915Z,95732.88
2023-01-17T12:02:55.551Z,95738.69
2023-01-17T12:06:19.841Z,95724.69
2023-01-17T12:09:43.254Z,95729.56
2023-01-17T12:13:42.884Z,95732.84
2023-01-17T12:16:48.018Z,95738.53
2023-01-17T12:20:05.048Z,95743.88
2023-01-17T12:23:14.322Z,95742.38
2023-01-17T12:26:32.042Z,95748.41
2023-01-17T12:29:45.694Z,95758.13
2023-01-17T12:32:57.828Z,95747.88
2023-01-17T12:36:04.918Z,95741.72
2023-01-17T12:39:12.111Z,95740.44
2023-01-17T12:42:24.428Z,95733.44
2023-01-17T12:45:34.844Z,95741.53
2023-01-17T12:48:41.262Z,95745.38
2023-01-17T12:51:46.253Z,95764.56
2023-01-17T12:54:53.728Z,95767.50
2023-01-17T12:57:57.757Z,95766.97
2023-01-17T13:01:05.005Z,95760.50
2023-01-17T13:05:01.266Z,95770.19
2023-01-17T13:08:19.978Z,95766.41
2023-01-17T13:11:33.760Z,95773.50
2023-01-17T13:14:39.088Z,95771.75
2023-01-17T13:17:46.903Z,95763.81
2023-01-17T13:21:43.848Z,95766.75
2023-01-17T13:24:58.524Z,95762.22
2023-01-17T13:28:30.248Z,95774.09
2023-01-17T13:31:58.794Z,95771.50
2023-01-17T13:35:04.192Z,95777.34
2023-01-17T13:38:28.335Z,95779.31
2023-01-17T13:41:43.102Z,95779.00
2023-01-17T13:44:46.013Z,95781.41
2023-01-17T13:47:48.763Z,95798.44
2023-01-17T13:50:57.689Z,95810.16
2023-01-17T13:54:00.413Z,95805.44
2023-01-17T13:57:29.699Z,95809.94
2023-01-17T14:00:35.169Z,95808.50
2023-01-17T14:04:04.475Z,95808.66
2023-01-17T14:07:18.487Z,95797.44
2023-01-17T14:10:21.021Z,95790.97
2023-01-17T14:13:39.453Z,95788.50
2023-01-17T14:16:42.098Z,95788.34
2023-01-17T14:19:46.852Z,95772.94
2023-01-17T14:23:01.948Z,95777.47
2023-01-17T14:27:06.017Z,95762.09
2023-01-17T14:30:18.295Z,95754.31
2023-01-17T14:33:35.118Z,95757.84
2023-01-17T14:36:38.640Z,95753.66
2023-01-17T14:39:49.120Z,95750.91
2023-01-17T14:43:06.606Z,95753.19
2023-01-17T14:46:18.175Z,95756.88
2023-01-17T14:49:25.655Z,95747.97
2023-01-17T14:52:28.329Z,95753.13
2023-01-17T14:55:30.953Z,95753.03
2023-01-17T14:58:35.213Z,95737.41
2023-01-17T15:01:38.033Z,95731.94
2023-01-17T15:04:41.203Z,95715.09
2023-01-17T15:07:46.212Z,95706.66
2023-01-17T15:11:00.739Z,95710.19
2023-01-17T15:14:05.994Z,95706.94
2023-01-17T15:17:20.366Z,95697.03
2023-01-17T15:20:23.925Z,95690.84
2023-01-17T15:23:31.843Z,95670.56
2023-01-17T15:26:36.950Z,95683.06
2023-01-17T15:29:40.684Z,95675.47
2023-01-17T15:32:48.024Z,95659.59
2023-01-17T15:35:58.229Z,95659.22
2023-01-17T15:39:02.926Z,95655.16
2023-01-17T15:42:36.801Z,95645.56
2023-01-17T15:45:39.579Z,95642.84
2023-01-17T15:48:45.128Z,95639.09
2023-01-17T15:51:56.905Z,95641.00
2023-01-17T15:55:12.678Z,95626.81
2023-01-17T15:58:29.814Z,95617.75
2023-01-17T16:01:32.779Z,95612.38
2023-01-17T16:04:37.555Z,95610.31
2023-01-17T16:07:40.291Z,95602.22
2023-01-17T16:10:44.178Z,95613.28
2023-01-17T16:13:48.763Z,95623.53
2023-01-17T16:16:57.255Z,95625.28
2023-01-17T16:20:00.450Z,95625.09
2023-01-17T16:23:03.291Z,95616.84
2023-01-17T16:26:06.199Z,95601.56
2023-01-17T16:29:10.506Z,95596.38
2023-01-17T16:32:15.698Z,95592.16
2023-01-17T16:35:27.825Z,95604.31
2023-01-17T16:38:32.491Z,95611.47
2023-01-17T16:41:35.064Z,95624.78
2023-01-17T16:44:37.810Z,95618.97
2023-01-17T16:47:44.733Z,95615.19
2023-01-17T16:50:50.864Z,95620.75
2023-01-17T16:53:53.747Z,95626.94
2023-01-17T16:56:56.679Z,95630.50
2023-01-17T16:59:59.641Z,95631.78
2023-01-17T17:03:02.479Z,95635.88
2023-01-17T17:06:05.312Z,95642.34
2023-01-17T17:09:07.887Z,95631.16
2023-01-17T17:12:10.439Z,95630.19
2023-01-17T17:15:13.720Z,95634.41
2023-01-17T17:18:18.371Z,95632.78
2023-01-17T17:21:21.138Z,95653.19
2023-01-17T17:24:23.773Z,95650.28
2023-01-17T17:27:29.115Z,95651.06
2023-01-17T17:30:31.852Z,95655.78
2023-01-17T17:33:35.224Z,95659.34
2023-01-17T17:36:38.293Z,95660.31
2023-01-17T17:39:42.596Z,95662.91
2023-01-17T17:42:45.333Z,95667.13
2023-01-17T17:45:49.073Z,95679.13
2023-01-17T17:48:51.913Z,95677.16
2023-01-17T17:51:54.595Z,95676.19
2023-01-17T17:54:57.366Z,95673.75
2023-01-17T17:58:02.357Z,95676.19
2023-01-17T18:01:06.925Z,95665.81
2023-01-17T18:04:10.091Z,95668.06
2023-01-17T18:07:12.899Z,95662.44
2023-01-17T18:10:15.878Z,95660.59
2023-01-17T18:13:18.578Z,95665.13
2023-01-17T18:16:30.019Z,95658.78
2023-01-17T18:19:32.681Z,95659.63
2023-01-17T18:22:35.393Z,95662.88
2023-01-17T18:25:38.113Z,95659.28
2023-01-17T18:28:41.008Z,95656.38
2023-01-17T18:31:45.128Z,95654.25
2023-01-17T18:34:47.751Z,95652.19
2023-01-17T18:37:50.410Z,95658.03
2023-01-17T18:40:53.272Z,95652.34
2023-01-17T18:43:56.502Z,95647.81
2023-01-17T18:47:04.871Z,95641.19
2023-01-17T18:50:08.115Z,95644.09
2023-01-17T18:53:10.819Z,95634.88
2023-01-17T18:56:15.375Z,95629.34
2023-01-17T18:59:21.776Z,95621.41
2023-01-17T19:02:24.413Z,95616.53
2023-01-17T19:05:27.268Z,95613.31
2023-01-17T19:08:31.541Z,95605.78
2023-01-17T19:11:35.157Z,95587.94
2023-01-17T19:14:38.011Z,95579.94
2023-01-17T19:17:40.982Z,95575.75
2023-01-17T19:20:44.411Z,95566.13
2023-01-17T19:23:47.572Z,95559.31
2023-01-17T19:26:54.465Z,95547.84
2023-01-17T19:29:57.604Z,95540.94
2023-01-17T19:33:00.340Z,95535.81
2023-01-17T19:36:05.961Z,95513.19
2023-01-17T19:39:12.129Z,95486.38
2023-01-17T19:42:15.987Z,95467.25
2023-01-17T19:45:18.998Z,95472.13
2023-01-17T19:48:22.742Z,95471.16
2023-01-17T19:51:26.937Z,95462.91
2023-01-17T19:54:29.822Z,95462.41
2023-01-17T19:57:37.379Z,95456.59
2023-01-17T20:00:46.547Z,95468.41
2023-01-17T20:03:51.150Z,95465.81
2023-01-17T20:06:54.063Z,95464.03
2023-01-17T20:09:57.882Z,95468.56
2023-01-17T20:13:00.692Z,95464.19
2023-01-17T20:16:08.709Z,95461.28
2023-01-17T20:19:11.696Z,95463.56
2023-01-17T20:22:14.479Z,95461.78
2023-01-17T20:25:17.170Z,95455.47
2023-01-17T20:28:19.991Z,95440.09
2023-01-17T20:31:24.849Z,95431.69
2023-01-17T20:34:28.423Z,95426.53
2023-01-17T20:37:31.431Z,95426.84
2023-01-17T20:40:34.203Z,95424.41
2023-01-17T20:43:36.967Z,95428.78
2023-01-17T20:46:41.472Z,95425.53
2023-01-17T20:49:44.630Z,95415.81
2023-01-17T20:52:48.646Z,95417.28
2023-01-17T20:55:56.966Z,95407.59
2023-01-17T20:59:00.179Z,95397.72
2023-01-17T21:02:03.089Z,95400.94
2023-01-17T21:05:06.567Z,95392.06
2023-01-17T21:08:09.659Z,95387.34
2023-01-17T21:11:15.519Z,95395.47
2023-01-17T21:14:18.526Z,95390.28
2023-01-17T21:17:21.192Z,95389.63
2023-01-17T21:20:23.905Z,95376.69
2023-01-17T21:23:29.452Z,95375.06
2023-01-17T21:26:32.356Z,95362.75
2023-01-17T21:29:35.147Z,95358.88
2023-01-17T21:32:37.840Z,95356.47
2023-01-17T21:35:40.565Z,95352.59
2023-01-17T21:38:43.359Z,95344.66
2023-01-17T21:41:48.379Z,95330.25
2023-01-17T21:44:51.143Z,95325.56
2023-01-17T21:47:53.882Z,95326.06
2023-01-17T21:50:56.663Z,95329.91
2023-01-17T21:53:59.238Z,95328.16
2023-01-17T21:57:21.065Z,95316.50
2023-01-17T22:00:24.802Z,95318.91
2023-01-17T22:03:27.598Z,95316.50
2023-01-17T22:06:32.164Z,95304.84
2023-01-17T22:09:34.756Z,95295.94
2023-01-17T22:12:37.414Z,95288.84
2023-01-17T22:15:40.192Z,95282.72
2023-01-17T22:18:43.980Z,95284.22
2023-01-17T22:21:46.649Z,95275.31
2023-01-17T22:24:49.239Z,95279.66
2023-01-17T22:27:52.109Z,95267.56
2023-01-17T22:30:54.683Z,95267.88
2023-01-17T22:34:02.972Z,95263.53
2023-01-17T22:37:10.347Z,95251.38
2023-01-17T22:40:13.537Z,95240.56
2023-01-17T22:43:16.141Z,95236.69
2023-01-17T22:46:21.399Z,95234.25
2023-01-17T22:49:24.655Z,95223.25
2023-01-17T22:52:27.179Z,95228.41
2023-01-17T22:55:29.768Z,95226.34
2023-01-17T22:58:33.024Z,95218.25
2023-01-17T23:01:35.656Z,95211.16
2023-01-17T23:04:38.213Z,95190.47
2023-01-17T23:07:43.774Z,95198.91
2023-01-17T23:11:25.341Z,95188.56
2023-01-17T23:14:54.456Z,95189.69
2023-01-17T23:18:15.782Z,95182.72
2023-01-17T23:21:18.424Z,95182.41
2023-01-17T23:24:21.086Z,95189.19
2023-01-17T23:27:53.570Z,95180.31
2023-01-17T23:31:03.423Z,95166.75
2023-01-17T23:34:06.032Z,95141.06
2023-01-17T23:37:08.628Z,95137.19
2023-01-17T23:40:11.858Z,95134.31
2023-01-17T23:43:23.952Z,95134.63
2023-01-17T23:46:27.277Z,95140.75
2023-01-17T23:49:31.533Z,95133.94
2023-01-17T23:52:34.051Z,95134.28
2023-01-17T23:55:44.709Z,95137.84
2023-01-17T23:58:47.353Z,95145.88
